»·PEaware :: N463PA KSMO-KPSP

N463PA :: KSMO-KPSP

FLIGHT INFORMATION

Flight Status: Arrived
Operator: Privately registered:
United States
More flights under this callsign
Pilot: Vinicius U. (17612)
Aircraft: PIPER PA-44 SEMINOLE
(PA44)
More flights by this aircraft type
Origin: KSMO Santa Monica Mun
United States
Destination: KPSP Palm Springs Intl
United States
More flights between these airports :: More routes between these airports
Route: ++ POM PDZ V186 NIKKL V64 TRM
File this flight plan on PilotEdge
Remarks:
Altitude:
(Current/Filed)
F110
Speed:
(Current/Filed)
140kts
Departed: 27-Dec-17 11:00 AM
Arrived: 27-Dec-17 12:18 PM
Distance/Time
Traveled:
98nm/1:18
Distance/Time
To Go:
Arrived

Flight Plot

Page will automatically refresh every two minutes.

Flight plan parsing failed; only flown route is shown


Map Options




Map Legend


Flown Route
Filed Route
Departure Airport
Arrival Airport
Navaid (VOR, NDB)
Fix

Horizontal Profiles

Position Reports

Time Latitude Longitude Heading Altitude Ground
Speed
27-Dec-17 10:18 34.016787 -118.448188 134 178ft 0kts
27-Dec-17 10:19 34.016787 -118.448188 134 178ft 0kts
27-Dec-17 10:20 34.016787 -118.448188 134 178ft 0kts
27-Dec-17 10:27 34.016653 -118.448375 134 178ft 0kts
27-Dec-17 10:28 34.016653 -118.448375 134 178ft 0kts
27-Dec-17 10:29 34.016653 -118.448375 134 178ft 0kts
27-Dec-17 10:30 34.016653 -118.448375 134 178ft 0kts
27-Dec-17 10:31 34.016653 -118.448375 134 178ft 0kts
27-Dec-17 10:32 34.016653 -118.448375 134 178ft 0kts
27-Dec-17 10:33 34.016653 -118.448375 134 178ft 0kts
27-Dec-17 10:34 34.016653 -118.448375 134 178ft 0kts
27-Dec-17 10:35 34.016653 -118.448375 134 178ft 0kts
27-Dec-17 10:36 34.016653 -118.448375 134 178ft 0kts
27-Dec-17 10:37 34.016653 -118.448375 134 178ft 0kts
27-Dec-17 10:38 34.016653 -118.448375 134 178ft 0kts
27-Dec-17 10:39 34.016653 -118.448375 134 178ft 0kts
27-Dec-17 10:40 34.016653 -118.448375 134 178ft 0kts
27-Dec-17 10:41 34.016653 -118.448375 134 178ft 0kts
27-Dec-17 10:42 34.016653 -118.448375 134 178ft 0kts
27-Dec-17 10:43 34.016653 -118.448375 134 178ft 0kts
27-Dec-17 10:44 34.016653 -118.448375 134 178ft 0kts
27-Dec-17 10:45 34.016653 -118.448375 134 178ft 0kts
27-Dec-17 10:46 34.016653 -118.448375 134 178ft 0kts
27-Dec-17 10:47 34.016653 -118.448375 134 178ft 0kts
27-Dec-17 10:48 34.016653 -118.448375 134 178ft 0kts
27-Dec-17 10:49 34.016653 -118.448375 134 178ft 0kts
27-Dec-17 10:50 34.016653 -118.448375 134 178ft 0kts
27-Dec-17 10:51 34.016653 -118.448375 134 178ft 0kts
27-Dec-17 10:52 34.016653 -118.448375 134 178ft 0kts
27-Dec-17 10:53 34.016653 -118.448375 134 178ft 0kts
27-Dec-17 10:54 34.016653 -118.448375 134 178ft 0kts
27-Dec-17 10:55 34.016653 -118.448375 134 178ft 0kts
27-Dec-17 10:56 34.016653 -118.448375 134 178ft 0kts
27-Dec-17 10:57 34.016653 -118.448375 134 178ft 0kts
27-Dec-17 10:58 34.016652 -118.448373 134 178ft 0kts
27-Dec-17 10:59 34.017343 -118.448280 54 178ft 12kts
27-Dec-17 11:00 34.019887 -118.445613 346 178ft 0kts
27-Dec-17 11:01 34.019888 -118.445613 346 178ft 0kts
27-Dec-17 11:02 34.019889 -118.445613 346 178ft 0kts
27-Dec-17 11:03 34.019894 -118.445615 346 178ft 0kts
27-Dec-17 11:04 34.019896 -118.445615 346 178ft 0kts
27-Dec-17 11:05 34.019897 -118.445615 346 178ft 0kts
27-Dec-17 11:06 34.017877 -118.448844 223 179ft 81kts
27-Dec-17 11:07 33.997675 -118.472730 223 1464ft 100kts
27-Dec-17 11:08 33.991502 -118.503926 331 2525ft 125kts
27-Dec-17 11:09 34.005210 -118.537841 267 3040ft 160kts
27-Dec-17 11:10 34.005148 -118.589153 311 3020ft 151kts
27-Dec-17 11:11 34.042715 -118.602340 355 3214ft 142kts
27-Dec-17 11:12 34.079426 -118.608384 354 4051ft 132kts
27-Dec-17 11:13 34.115037 -118.612929 357 4880ft 125kts
27-Dec-17 11:14 34.134807 -118.588250 89 5608ft 116kts
27-Dec-17 11:15 34.133334 -118.548057 89 6045ft 133kts
27-Dec-17 11:16 34.127804 -118.501036 89 6021ft 146kts
27-Dec-17 11:17 34.125788 -118.451654 93 5947ft 152kts
27-Dec-17 11:18 34.121257 -118.404719 94 6348ft 134kts
27-Dec-17 11:19 34.121685 -118.363426 87 7016ft 117kts
27-Dec-17 11:20 34.122747 -118.319028 86 7057ft 142kts
27-Dec-17 11:21 34.123297 -118.269929 88 7044ft 146kts
27-Dec-17 11:22 34.125393 -118.220628 85 7119ft 145kts
27-Dec-17 11:23 34.125997 -118.171119 101 7198ft 140kts
27-Dec-17 11:24 34.115373 -118.131988 106 7999ft 121kts
27-Dec-17 11:25 34.108131 -118.091869 97 8568ft 124kts
27-Dec-17 11:26 34.106032 -118.051751 93 9181ft 123kts
27-Dec-17 11:27 34.103599 -118.005592 99 9220ft 142kts
27-Dec-17 11:28 34.097590 -117.955900 100 9082ft 155kts
27-Dec-17 11:29 34.091612 -117.905231 99 9111ft 152kts
27-Dec-17 11:30 34.085011 -117.854963 97 9111ft 152kts
27-Dec-17 11:31 34.082195 -117.804295 99 9136ft 150kts
27-Dec-17 11:32 34.062775 -117.761293 129 9128ft 151kts
27-Dec-17 11:33 34.038692 -117.720081 125 9119ft 151kts
27-Dec-17 11:34 34.014155 -117.678997 124 9113ft 151kts
27-Dec-17 11:35 33.988638 -117.639205 130 9096ft 152kts
27-Dec-17 11:36 33.961362 -117.599580 124 9010ft 152kts
27-Dec-17 11:37 33.937362 -117.557570 128 8967ft 152kts
27-Dec-17 11:38 33.910307 -117.520248 149 9008ft 153kts
27-Dec-17 11:39 33.875608 -117.492819 137 9050ft 153kts
27-Dec-17 11:40 33.840523 -117.462928 145 9050ft 152kts
27-Dec-17 11:41 33.805134 -117.434847 140 9030ft 155kts
27-Dec-17 11:42 33.769709 -117.405065 145 9054ft 151kts
27-Dec-17 11:43 33.738074 -117.379881 143 9663ft 133kts
27-Dec-17 11:44 33.724500 -117.343688 95 10319ft 121kts
27-Dec-17 11:45 33.721401 -117.304080 98 10971ft 117kts
27-Dec-17 11:46 33.717727 -117.259554 96 10987ft 145kts
27-Dec-17 11:47 33.716368 -117.210670 93 11091ft 147kts
27-Dec-17 11:48 33.713584 -117.160302 97 11031ft 152kts
27-Dec-17 11:49 33.709485 -117.109721 97 11031ft 152kts
27-Dec-17 11:50 33.705391 -117.058986 97 11032ft 152kts
27-Dec-17 11:51 33.701299 -117.008474 97 11031ft 152kts
27-Dec-17 11:52 33.698733 -116.957853 94 11031ft 151kts
27-Dec-17 11:53 33.696610 -116.907223 94 11032ft 151kts
27-Dec-17 11:54 33.694392 -116.856824 94 11032ft 151kts
27-Dec-17 11:55 33.690460 -116.806493 98 11032ft 150kts
27-Dec-17 11:56 33.684740 -116.756707 98 11032ft 150kts
27-Dec-17 11:57 33.679937 -116.717801 98 11034ft 149kts
27-Dec-17 11:58 33.673819 -116.668389 98 11032ft 149kts
27-Dec-17 11:59 33.667575 -116.620448 98 11030ft 152kts
27-Dec-17 12:00 33.660922 -116.571592 98 11034ft 155kts
27-Dec-17 12:01 33.654692 -116.519907 98 10874ft 164kts
27-Dec-17 12:02 33.653057 -116.464008 81 10472ft 167kts
27-Dec-17 12:03 33.650862 -116.406373 96 9780ft 175kts
27-Dec-17 12:04 33.644073 -116.347842 98 8965ft 180kts
27-Dec-17 12:05 33.638565 -116.290614 95 8106ft 185kts
27-Dec-17 12:06 33.635021 -116.243116 97 7423ft 183kts
27-Dec-17 12:07 33.631945 -116.198007 92 6819ft 177kts
27-Dec-17 12:08 33.626495 -116.139603 90 6047ft 175kts
27-Dec-17 12:09 33.626511 -116.089969 88 5588ft 172kts
27-Dec-17 12:10 33.594307 -116.059504 205 4889ft 172kts
27-Dec-17 12:11 33.596226 -116.106152 309 4155ft 163kts
27-Dec-17 12:12 33.620851 -116.144785 301 4028ft 131kts
27-Dec-17 12:13 33.639004 -116.183247 304 4032ft 133kts
27-Dec-17 12:14 33.660235 -116.220898 301 4040ft 136kts
27-Dec-17 12:15 33.680418 -116.260058 306 4006ft 138kts
27-Dec-17 12:16 33.700897 -116.299258 303 4038ft 138kts
27-Dec-17 12:17 33.719652 -116.334270 301 4045ft 109kts
27-Dec-17 12:18 33.735853 -116.365370 305 3346ft 106kts
27-Dec-17 12:19 33.750268 -116.392817 302 3090ft 92kts
27-Dec-17 12:20 33.762732 -116.416586 301 2715ft 103kts
27-Dec-17 12:21 33.779197 -116.450048 295 2035ft 102kts
27-Dec-17 12:22 33.794909 -116.477202 321 1230ft 100kts
27-Dec-17 12:23 33.811759 -116.491690 322 789ft 77kts
27-Dec-17 12:24 33.824938 -116.502556 87 480ft 8kts
27-Dec-17 12:25 33.824943 -116.502312 88 480ft 0kts
27-Dec-17 12:26 33.824943 -116.502311 88 480ft 0kts
27-Dec-17 12:27 33.824943 -116.502310 88 480ft 0kts
27-Dec-17 12:28 33.824933 -116.501642 110 480ft 19kts
27-Dec-17 12:29 33.818946 -116.495507 39 480ft 15kts
27-Dec-17 12:30 33.820873 -116.495058 141 480ft 0kts
27-Dec-17 12:31 33.820873 -116.495058 141 480ft 0kts
27-Dec-17 12:32 33.820873 -116.495058 141 480ft 0kts
27-Dec-17 12:33 33.820873 -116.495058 141 480ft 0kts
27-Dec-17 12:34 33.820873 -116.495057 141 480ft 0kts
27-Dec-17 12:35 33.820871 -116.495056 141 480ft 0kts
27-Dec-17 12:36 33.820870 -116.495055 141 480ft 0kts
27-Dec-17 12:37 33.820869 -116.495054 141 480ft 0kts
27-Dec-17 12:38 33.820869 -116.495054 141 480ft 0kts
27-Dec-17 12:39 33.820869 -116.495054 141 480ft 0kts

Navigation Log

Ident Type
Flight plan parsing failed, navigation log unavailable